aviador You're here:

SAZM Decoded Metar

MAR DEL PLATA in ARGENTINA
Report Time2018-01-20 05:00:00
UTC Time2018-01-20 05:17:07
Flight Rules vfr VFR
Wind340° at 03 kt
W.Decomp.*RWY 31: 2.4 kt HW 1.8 kt RCW
W.Rank340° ranks 2
Current wind is below 340° avg. (10.5)
Visibility9999 m
Phenomena:N/A
Clouds:N/A
Expected CloudBase > 400 ft AGL from Temp-Dew spread
CeilingNone
Temp17°C (ISA +2)
Dew Point16°C (94% RH)
QNH1014 hPa
Density Alt528 ft
Elevation69 ft
Report Wrong Elevation
Raw Report
METAR SAZM 200500Z 34003KT 320V050 CAVOK 17/16 Q1014=

Extra information for SAZM:More info

Metar Taf Metar & Taf Last 4 Metars F.Rules Stats Wind Profile Meteogram Temp Stats Airport Information Weather charts Add Link Nearby VenuesMetar ALERT Operation Metar Decoded Social comments